Time;durP1;ratioP1;P1;durP2;ratioP2;P2;SDS_P1;SDS_P2;PMS_P1;PMS_P2;Temp;Humidity;BMP_temperature;BMP_pressure;BME280_temperature;BME280_humidity;BME280_pressure;Samples;Min_cycle;Max_cycle;Signal;HPM_P1;HPM_P2
2023/05/07 00:00:15;;;;;;;62.55;26.25;;;;;;;14.15;91.93;101798.16;6098059;19;20025;-76
2023/05/07 00:02:21;;;;;;;57.50;25.63;;;;;;;14.14;91.82;101802.56;6096284;19;20036;-76
2023/05/07 00:04:26;;;;;;;60.38;25.48;;;;;;;14.12;91.50;101807.06;6098239;19;20090;-76
2023/05/07 00:06:35;;;;;;;58.80;25.80;;;;;;;14.12;91.55;101803.56;6094314;19;20002;-77
2023/05/07 00:08:40;;;;;;;52.53;23.95;;;;;;;14.09;92.22;101808.97;6096394;19;20685;-77
2023/05/07 00:10:48;;;;;;;51.95;25.38;;;;;;;14.03;92.07;101810.94;6099298;19;20011;-77
2023/05/07 00:12:53;;;;;;;66.47;26.20;;;;;;;14.09;91.49;101816.91;6095465;19;20505;-77
2023/05/07 00:14:59;;;;;;;65.25;26.77;;;;;;;14.03;92.09;101810.94;6095684;19;20098;-77
2023/05/07 00:17:04;;;;;;;58.85;27.60;;;;;;;14.00;91.80;101811.03;6094040;19;20035;-77
2023/05/07 00:19:09;;;;;;;62.75;28.48;;;;;;;13.99;91.59;101814.59;6095785;19;20007;-77
2023/05/07 00:21:14;;;;;;;58.95;25.90;;;;;;;13.99;91.40;101814.59;6098683;19;20408;-77
2023/05/07 00:23:19;;;;;;;56.80;27.73;;;;;;;13.95;91.69;101813.00;6096880;19;20010;-77
2023/05/07 00:25:26;;;;;;;61.55;27.05;;;;;;;13.93;91.83;101809.56;6092833;19;20025;-76
2023/05/07 00:27:34;;;;;;;55.65;25.98;;;;;;;13.92;91.63;101812.25;6094399;19;20057;-76
2023/05/07 00:29:40;;;;;;;63.72;26.50;;;;;;;13.92;92.15;101807.84;6094797;19;20105;-75
2023/05/07 00:31:45;;;;;;;58.85;26.35;;;;;;;13.90;91.72;101803.53;6095848;19;20002;-75
2023/05/07 00:33:50;;;;;;;59.35;24.33;;;;;;;13.89;91.77;101800.03;6091925;19;20003;-76
2023/05/07 00:35:56;;;;;;;64.80;27.60;;;;;;;13.90;92.43;101806.16;6093951;19;20018;-75
2023/05/07 00:38:02;;;;;;;54.42;25.70;;;;;;;13.87;92.34;101798.38;6097528;19;20044;-76
2023/05/07 00:40:09;;;;;;;52.33;25.33;;;;;;;13.88;91.83;101794.81;6092914;19;20032;-76
2023/05/07 00:42:14;;;;;;;60.05;27.13;;;;;;;13.87;92.33;101799.22;6093628;19;20016;-73
2023/05/07 00:44:22;;;;;;;54.60;26.92;;;;;;;13.82;92.69;101796.78;6099480;19;20019;-73
2023/05/07 00:46:30;;;;;;;57.67;25.63;;;;;;;13.83;92.87;101792.34;6094898;19;20048;-73
2023/05/07 00:48:35;;;;;;;55.15;23.48;;;;;;;13.84;92.20;101799.34;6091169;19;20023;-73
2023/05/07 00:50:40;;;;;;;58.47;24.60;;;;;;;13.82;92.09;101799.41;6094330;19;20002;-73
2023/05/07 00:52:45;;;;;;;64.97;25.15;;;;;;;13.85;92.16;101801.09;6090054;19;20019;-76
2023/05/07 00:54:51;;;;;;;59.95;26.15;;;;;;;13.81;92.34;101789.75;6094794;19;20507;-73
2023/05/07 00:56:57;;;;;;;58.85;25.55;;;;;;;13.83;92.03;101792.34;6093971;19;20044;-73
2023/05/07 00:59:04;;;;;;;59.75;26.05;;;;;;;13.82;92.18;101795.91;6094139;19;20043;-73
2023/05/07 01:01:12;;;;;;;63.13;27.05;;;;;;;13.81;92.49;101794.19;6094299;19;20005;-74
2023/05/07 01:03:17;;;;;;;53.42;24.20;;;;;;;13.79;92.17;101796.88;6093554;19;20010;-73
2023/05/07 01:05:25;;;;;;;51.95;24.40;;;;;;;13.76;92.29;101801.44;6093918;19;20803;-74
2023/05/07 01:07:34;;;;;;;48.80;23.08;;;;;;;13.73;92.16;101797.13;6092081;19;20487;-74
2023/05/07 01:09:39;;;;;;;54.78;26.92;;;;;;;13.76;92.49;101796.13;6093588;19;20066;-74
2023/05/07 01:11:45;;;;;;;58.53;25.70;;;;;;;13.73;92.37;101790.97;6093774;19;20016;-74
2023/05/07 01:13:51;;;;;;;65.20;25.95;;;;;;;13.74;92.30;101785.63;6092782;19;20122;-74
2023/05/07 01:15:56;;;;;;;59.72;25.88;;;;;;;13.75;92.35;101779.44;6093412;19;19999;-74
2023/05/07 01:18:06;;;;;;;55.67;25.40;;;;;;;13.77;92.58;101784.63;6090144;19;20009;-74
2023/05/07 01:20:13;;;;;;;58.95;25.52;;;;;;;13.73;92.48;101783.06;6091779;19;20039;-74
2023/05/07 01:22:30;;;;;;;53.35;24.95;;;;;;;13.72;92.87;101778.72;6092680;19;20011;-74
2023/05/07 01:24:35;;;;;;;60.25;25.40;;;;;;;13.66;92.53;101779.78;6092837;19;20068;-73
2023/05/07 01:26:41;;;;;;;52.10;23.85;;;;;;;13.63;92.65;101771.13;6095220;19;20053;-73
2023/05/07 01:28:45;;;;;;;54.80;24.45;;;;;;;13.65;92.25;101782.50;6096847;19;20222;-74
2023/05/07 01:30:56;;;;;;;53.75;23.80;;;;;;;13.58;92.38;101771.28;6095807;19;20425;-74
2023/05/07 01:33:04;;;;;;;52.65;25.90;;;;;;;13.59;92.61;101779.16;6094263;19;20021;-74
2023/05/07 01:35:13;;;;;;;64.50;25.92;;;;;;;13.59;92.47;101781.81;6096501;19;20044;-74
2023/05/07 01:37:19;;;;;;;51.83;25.08;;;;;;;13.61;92.62;101784.38;6095333;19;20023;-74
2023/05/07 01:39:28;;;;;;;49.95;22.73;;;;;;;13.58;93.05;101776.56;6098104;19;20019;-76
2023/05/07 01:41:34;;;;;;;56.10;24.45;;;;;;;13.59;92.93;101779.16;6096108;19;20115;-76
2023/05/07 01:43:40;;;;;;;60.00;25.92;;;;;;;13.64;92.81;101779.00;6094530;19;20366;-77
2023/05/07 01:45:45;;;;;;;58.10;25.08;;;;;;;13.58;93.28;101774.78;6095033;19;20102;-77
2023/05/07 01:47:51;;;;;;;60.10;27.17;;;;;;;13.57;92.98;101773.06;6092878;19;20011;-76
2023/05/07 01:49:57;;;;;;;57.10;26.33;;;;;;;13.58;93.18;101774.78;6096669;19;20032;-76
2023/05/07 01:52:04;;;;;;;62.85;26.05;;;;;;;13.61;93.03;101771.16;6094520;19;20031;-77
2023/05/07 01:54:09;;;;;;;59.97;25.88;;;;;;;13.67;93.08;101775.38;6094050;19;20477;-76
2023/05/07 01:56:18;;;;;;;62.92;25.63;;;;;;;13.71;92.87;101771.69;6092828;19;20006;-77
2023/05/07 01:58:26;;;;;;;56.72;29.08;;;;;;;13.71;93.22;101774.31;6096968;19;20014;-78
2023/05/07 02:00:32;;;;;;;58.55;26.70;;;;;;;13.70;93.48;101770.81;6096059;19;20274;-77
2023/05/07 02:02:38;;;;;;;61.45;27.77;;;;;;;13.66;93.43;101773.63;6097466;19;20010;-77
2023/05/07 02:04:43;;;;;;;58.13;26.55;;;;;;;13.69;93.47;101771.75;6099551;19;20297;-77
2023/05/07 02:06:48;;;;;;;58.25;27.55;;;;;;;13.68;93.75;101779.72;6099645;19;20734;-77
2023/05/07 02:08:53;;;;;;;61.30;27.95;;;;;;;13.70;93.76;101770.81;6099074;19;20011;-78
2023/05/07 02:10:59;;;;;;;60.50;27.77;;;;;;;13.72;93.71;101769.00;6098946;19;20041;-78
2023/05/07 02:13:06;;;;;;;59.33;28.63;;;;;;;13.70;93.56;101769.97;6099395;19;20305;-77
2023/05/07 02:15:13;;;;;;;56.72;27.80;;;;;;;13.68;94.21;101777.09;6100994;19;20014;-77
2023/05/07 02:17:19;;;;;;;61.22;28.77;;;;;;;13.71;94.33;101772.53;6099061;19;20005;-77
2023/05/07 02:19:27;;;;;;;65.53;28.58;;;;;;;13.69;93.95;101779.69;6099980;19;20003;-77
2023/05/07 02:21:32;;;;;;;70.93;30.52;;;;;;;13.70;94.61;101775.25;6099071;19;20484;-77
2023/05/07 02:23:38;;;;;;;52.05;28.10;;;;;;;13.66;94.32;101778.91;6097967;19;20009;-77
2023/05/07 02:25:43;;;;;;;52.53;29.42;;;;;;;13.66;94.31;101781.56;6102713;19;20073;-76
2023/05/07 02:27:48;;;;;;;57.83;28.38;;;;;;;13.69;94.19;101784.06;6098870;19;20032;-77
2023/05/07 02:29:55;;;;;;;57.53;29.52;;;;;;;13.67;94.30;101778.03;6098899;19;20031;-77
2023/05/07 02:32:00;;;;;;;59.10;28.35;;;;;;;13.63;94.66;101784.31;6101339;19;20010;-77
2023/05/07 02:34:06;;;;;;;55.80;28.77;;;;;;;13.64;94.58;101780.75;6098431;19;20017;-76
2023/05/07 02:36:12;;;;;;;63.78;29.83;;;;;;;13.66;94.80;101782.41;6102533;19;20040;-76
2023/05/07 02:38:18;;;;;;;64.75;30.83;;;;;;;13.70;94.63;101785.81;6101835;19;20734;-76
2023/05/07 02:40:23;;;;;;;61.63;30.88;;;;;;;13.75;94.46;101779.44;6098485;19;20243;-76
2023/05/07 02:42:29;;;;;;;59.00;30.90;;;;;;;13.73;94.92;101780.41;6103266;19;20092;-76
2023/05/07 02:44:35;;;;;;;65.20;30.70;;;;;;;13.75;94.97;101784.72;6099678;19;20006;-76
2023/05/07 02:46:43;;;;;;;55.60;30.60;;;;;;;13.72;95.18;101776.91;6101035;19;20057;-76
2023/05/07 02:48:48;;;;;;;54.63;30.15;;;;;;;13.73;95.17;101776.00;6102261;19;20659;-76
2023/05/07 02:50:53;;;;;;;59.30;29.00;;;;;;;13.76;94.87;101781.16;6100680;19;20031;-76
2023/05/07 02:52:58;;;;;;;58.13;29.85;;;;;;;13.73;95.49;101781.28;6095138;19;20090;-76
2023/05/07 02:55:04;;;;;;;53.72;30.50;;;;;;;13.79;94.99;101780.16;6098261;19;21247;-77
2023/05/07 02:57:09;;;;;;;57.63;28.75;;;;;;;13.81;95.09;101783.63;6100351;19;20011;-76
2023/05/07 02:59:14;;;;;;;57.42;30.45;;;;;;;13.79;94.62;101780.16;6096659;19;20155;-77
2023/05/07 03:01:19;;;;;;;57.72;29.38;;;;;;;13.80;94.97;101781.91;6099230;19;20007;-77
2023/05/07 03:03:26;;;;;;;53.92;31.00;;;;;;;13.75;95.46;101775.94;6095889;19;20007;-77
2023/05/07 03:05:32;;;;;;;52.22;30.75;;;;;;;13.78;95.33;101784.59;6101642;19;20043;-77
2023/05/07 03:07:37;;;;;;;49.17;27.38;;;;;;;13.79;95.06;101780.16;6098664;19;20010;-77
2023/05/07 03:09:42;;;;;;;50.33;27.90;;;;;;;13.84;95.22;101783.50;6098472;19;20051;-77
2023/05/07 03:11:47;;;;;;;55.85;30.45;;;;;;;13.80;95.12;101777.47;6099672;19;20014;-77
2023/05/07 03:13:53;;;;;;;52.83;30.02;;;;;;;13.79;95.21;101781.03;6096780;19;20372;-78
2023/05/07 03:15:57;;;;;;;50.00;28.23;;;;;;;13.78;95.36;101779.31;6099649;19;20039;-78
2023/05/07 03:18:03;;;;;;;59.35;30.50;;;;;;;13.77;95.06;101774.97;6098875;19;20383;-76
2023/05/07 03:20:12;;;;;;;56.03;28.58;;;;;;;13.78;95.31;101773.16;6094725;19;20547;-76
2023/05/07 03:22:18;;;;;;;52.38;28.05;;;;;;;13.79;95.32;101780.16;6096060;19;20503;-75
2023/05/07 03:24:23;;;;;;;46.28;28.40;;;;;;;13.78;95.47;101783.75;6096689;19;20492;-76
2023/05/07 03:26:27;;;;;;;49.47;26.63;;;;;;;13.79;95.16;101780.16;6099120;19;20022;-76
2023/05/07 03:28:33;;;;;;;53.78;28.25;;;;;;;13.79;95.37;101775.75;6100607;19;20011;-76
2023/05/07 03:30:38;;;;;;;52.05;28.52;;;;;;;13.80;95.50;101780.13;6096368;19;20007;-75
2023/05/07 03:32:43;;;;;;;48.67;27.00;;;;;;;13.80;95.29;101780.13;6096573;19;20010;-75
2023/05/07 03:34:48;;;;;;;50.47;28.92;;;;;;;13.78;95.55;101776.66;6097997;19;20397;-76
2023/05/07 03:36:55;;;;;;;49.78;27.42;;;;;;;13.82;95.33;101780.94;6100580;19;20010;-77
2023/05/07 03:39:00;;;;;;;50.15;27.13;;;;;;;13.79;95.36;101777.53;6098919;19;20391;-76
2023/05/07 03:41:05;;;;;;;46.88;26.40;;;;;;;13.81;95.42;101781.81;6097111;19;20074;-77
2023/05/07 03:43:10;;;;;;;47.33;27.83;;;;;;;13.86;95.26;101767.59;6099742;19;20104;-78
2023/05/07 03:45:15;;;;;;;44.60;25.58;;;;;;;13.86;94.67;101772.88;6097761;19;20005;-77
2023/05/07 03:47:23;;;;;;;45.90;25.95;;;;;;;13.84;95.11;101776.41;6094360;19;20494;-77
2023/05/07 03:49:29;;;;;;;45.45;26.35;;;;;;;13.83;95.03;101780.00;6094138;19;20510;-77
2023/05/07 03:51:35;;;;;;;49.60;26.55;;;;;;;13.80;95.14;101779.25;6098619;19;20393;-77
2023/05/07 03:53:43;;;;;;;42.92;25.70;;;;;;;13.79;95.25;101780.16;6096636;19;20035;-77
2023/05/07 03:55:48;;;;;;;48.63;27.08;;;;;;;13.84;95.37;101778.22;6098886;19;20363;-77
2023/05/07 03:57:53;;;;;;;44.60;25.40;;;;;;;13.83;95.12;101782.63;6100370;19;20047;-78
2023/05/07 03:59:59;;;;;;;43.20;25.25;;;;;;;13.84;95.30;101779.06;6099400;19;19998;-77
2023/05/07 04:02:04;;;;;;;45.75;26.02;;;;;;;13.82;95.26;101782.69;6095907;19;20546;-76
2023/05/07 04:04:09;;;;;;;45.85;24.75;;;;;;;13.78;95.18;101784.59;6094040;19;20014;-77
2023/05/07 04:06:14;;;;;;;47.90;25.95;;;;;;;13.76;95.41;101786.44;6097716;19;20501;-77
2023/05/07 04:08:19;;;;;;;43.63;24.77;;;;;;;13.79;95.29;101790.72;6091427;19;20006;-77
2023/05/07 04:10:28;;;;;;;43.33;25.13;;;;;;;13.81;95.19;101788.91;6097453;19;20503;-77
2023/05/07 04:12:36;;;;;;;43.40;24.90;;;;;;;13.80;94.97;101792.47;6096115;19;21319;-77
2023/05/07 04:14:41;;;;;;;43.72;24.77;;;;;;;13.87;94.75;101787.78;6094396;19;20007;-77
2023/05/07 04:16:46;;;;;;;41.72;25.65;;;;;;;13.84;95.06;101789.63;6097157;19;20014;-77
2023/05/07 04:18:54;;;;;;;41.42;23.75;;;;;;;13.80;95.10;101790.69;6096015;19;20035;-77
2023/05/07 04:20:59;;;;;;;44.88;23.90;;;;;;;13.84;94.94;101786.13;6091819;19;20006;-77
2023/05/07 04:23:04;;;;;;;39.70;22.45;;;;;;;13.81;95.00;101788.91;6096953;19;20015;-76
2023/05/07 04:25:11;;;;;;;36.50;22.67;;;;;;;13.80;94.89;101787.19;6094517;19;20011;-76
2023/05/07 04:27:20;;;;;;;41.88;23.35;;;;;;;13.80;94.89;101795.13;6094385;19;20496;-77
2023/05/07 04:29:25;;;;;;;40.78;23.65;;;;;;;13.78;94.95;101792.53;6095822;19;20010;-77
2023/05/07 04:31:30;;;;;;;42.45;22.55;;;;;;;13.81;94.94;101796.81;6097249;19;20035;-77
2023/05/07 04:33:36;;;;;;;36.08;22.40;;;;;;;13.85;94.71;101790.50;6093890;19;20670;-77
2023/05/07 04:35:41;;;;;;;40.25;22.73;;;;;;;13.85;94.78;101790.50;6097056;19;20017;-77
2023/05/07 04:37:46;;;;;;;41.28;23.88;;;;;;;13.82;94.87;101791.50;6094144;19;20002;-77
2023/05/07 04:39:53;;;;;;;37.00;21.75;;;;;;;13.82;94.86;101793.25;6094967;19;20007;-77
2023/05/07 04:42:00;;;;;;;38.15;22.63;;;;;;;13.84;95.02;101788.78;6096710;19;20078;-76
2023/05/07 04:44:09;;;;;;;39.58;22.60;;;;;;;13.84;95.23;101799.34;6096252;19;20003;-76
2023/05/07 04:46:14;;;;;;;38.30;22.25;;;;;;;13.85;95.17;101801.09;6097386;19;20010;-76
2023/05/07 04:48:20;;;;;;;37.47;22.60;;;;;;;13.83;94.82;101793.22;6098563;19;20463;-76
2023/05/07 04:50:33;;;;;;;41.58;23.73;;;;;;;13.84;95.03;101799.34;6096909;19;20014;-77
2023/05/07 04:52:38;;;;;;;35.78;21.98;;;;;;;13.87;94.87;101801.84;6095703;19;20114;-77
2023/05/07 04:54:43;;;;;;;43.58;24.17;;;;;;;13.89;94.95;101793.88;6096147;19;20032;-76
2023/05/07 04:56:48;;;;;;;39.00;22.17;;;;;;;13.87;95.31;101793.09;6098492;19;20373;-76
2023/05/07 04:58:53;;;;;;;42.25;24.33;;;;;;;13.88;95.12;101793.03;6097224;19;20067;-77
2023/05/07 05:01:04;;;;;;;37.63;23.00;;;;;;;13.93;95.12;101798.13;6099029;19;20318;-76
2023/05/07 05:03:10;;;;;;;38.85;22.10;;;;;;;13.94;95.01;101795.44;6095729;19;20480;-77
2023/05/07 05:05:15;;;;;;;35.15;21.58;;;;;;;13.95;95.07;101805.06;6096184;19;20006;-76
2023/05/07 05:07:20;;;;;;;41.60;23.50;;;;;;;13.94;94.80;101799.84;6098581;19;20731;-77
2023/05/07 05:09:25;;;;;;;36.65;21.88;;;;;;;13.95;94.95;101796.28;6093520;19;20011;-76
2023/05/07 05:11:30;;;;;;;37.90;21.73;;;;;;;14.04;94.89;101796.78;6093408;19;20023;-78
2023/05/07 05:13:35;;;;;;;37.30;22.13;;;;;;;14.00;94.81;101811.03;6091090;19;20364;-77
2023/05/07 05:15:40;;;;;;;41.20;23.42;;;;;;;13.99;94.65;101806.69;6096668;19;20007;-77
2023/05/07 05:17:48;;;;;;;37.13;22.60;;;;;;;14.04;94.63;101814.44;6094083;19;20522;-76
2023/05/07 05:19:53;;;;;;;36.85;23.00;;;;;;;14.04;94.43;101811.78;6094335;19;20289;-76
2023/05/07 05:22:00;;;;;;;34.78;20.73;;;;;;;14.13;94.66;101810.56;6096305;19;20033;-77
2023/05/07 05:24:06;;;;;;;34.83;21.08;;;;;;;14.16;94.39;101815.72;6093066;19;20642;-77
2023/05/07 05:26:11;;;;;;;37.90;22.25;;;;;;;14.19;94.33;101810.31;6099108;19;19998;-77
2023/05/07 05:28:16;;;;;;;42.50;23.42;;;;;;;14.18;94.18;101819.16;6095566;19;20274;-76
2023/05/07 05:30:21;;;;;;;43.47;22.52;;;;;;;14.20;94.58;101817.31;6097682;19;20006;-76
2023/05/07 05:32:27;;;;;;;36.38;21.98;;;;;;;14.24;94.19;101827.72;6099167;19;20047;-76
2023/05/07 05:34:36;;;;;;;34.33;20.42;;;;;;;14.28;94.14;101815.22;6095513;19;20364;-76
2023/05/07 05:36:41;;;;;;;36.75;21.20;;;;;;;14.28;93.98;101818.72;6095424;19;20030;-76
2023/05/07 05:38:47;;;;;;;33.90;20.70;;;;;;;14.35;94.01;101827.28;6103903;19;20002;-76
2023/05/07 05:40:52;;;;;;;34.83;21.13;;;;;;;14.38;93.96;101832.44;6101889;19;20059;-76
2023/05/07 05:43:00;;;;;;;40.08;22.70;;;;;;;14.38;93.81;101832.44;6098947;19;20850;-75
2023/05/07 05:45:05;;;;;;;31.63;21.17;;;;;;;14.45;93.96;101833.03;6101945;19;20020;-76
2023/05/07 05:47:10;;;;;;;37.50;22.23;;;;;;;14.51;93.89;101840.75;6101216;19;20007;-76
2023/05/07 05:49:15;;;;;;;39.38;22.00;;;;;;;14.57;93.83;101837.03;6099239;19;20354;-76
2023/05/07 05:51:23;;;;;;;37.08;21.63;;;;;;;14.63;93.52;101832.31;6103441;19;20715;-76
2023/05/07 05:53:28;;;;;;;38.00;21.80;;;;;;;14.66;93.10;101839.28;6096302;19;20575;-76
2023/05/07 05:55:34;;;;;;;34.47;21.75;;;;;;;14.67;93.16;101838.38;6104115;19;20040;-75
2023/05/07 05:57:41;;;;;;;37.08;22.48;;;;;;;14.63;93.02;101847.34;6100826;19;20011;-76
2023/05/07 05:59:47;;;;;;;38.28;20.63;;;;;;;14.62;92.84;101845.63;6101548;19;20382;-76
2023/05/07 06:01:52;;;;;;;37.08;21.63;;;;;;;14.59;93.26;101846.63;6100446;19;20010;-76
2023/05/07 06:03:57;;;;;;;38.00;21.80;;;;;;;14.66;93.47;101847.22;6098288;19;20745;-76
2023/05/07 06:06:02;;;;;;;37.95;21.17;;;;;;;14.74;93.09;101839.81;6098997;19;20040;-76
2023/05/07 06:08:10;;;;;;;32.42;21.15;;;;;;;14.74;93.31;101853.03;6097226;19;20011;-76
2023/05/07 06:10:15;;;;;;;36.88;21.75;;;;;;;14.80;92.93;101844.88;6097586;19;20044;-76
2023/05/07 06:12:23;;;;;;;37.28;20.75;;;;;;;14.83;91.82;101844.72;6098739;19;20036;-76
2023/05/07 06:14:28;;;;;;;34.38;21.55;;;;;;;14.84;92.07;101841.16;6098736;19;20036;-76
2023/05/07 06:16:35;;;;;;;38.97;22.05;;;;;;;14.90;91.62;101843.56;6100632;19;20066;-76
2023/05/07 06:18:45;;;;;;;39.50;21.73;;;;;;;14.82;92.65;101848.28;6097420;19;20017;-76
2023/05/07 06:20:50;;;;;;;34.95;20.50;;;;;;;14.82;92.12;101840.34;6099952;19;20007;-76
2023/05/07 06:22:55;;;;;;;40.80;22.10;;;;;;;14.88;92.09;101837.47;6097124;19;20052;-76
2023/05/07 06:25:03;;;;;;;39.97;22.50;;;;;;;14.91;92.30;101844.41;6096930;19;20007;-76
2023/05/07 06:27:08;;;;;;;39.72;23.15;;;;;;;14.88;91.73;101836.59;6100247;19;20003;-76
2023/05/07 06:29:13;;;;;;;38.08;22.52;;;;;;;14.87;91.68;101841.00;6100485;19;20047;-76
2023/05/07 06:31:20;;;;;;;41.10;22.83;;;;;;;14.90;91.88;101842.66;6098469;19;20850;-76
2023/05/07 06:33:25;;;;;;;41.03;23.95;;;;;;;15.01;91.65;101839.56;6099632;19;20011;-75
2023/05/07 06:35:30;;;;;;;43.08;23.92;;;;;;;15.15;92.04;101837.19;6098771;19;20372;-74
2023/05/07 06:37:38;;;;;;;45.05;23.48;;;;;;;15.44;90.38;101840.34;6094846;19;20011;-73
2023/05/07 06:39:42;;;;;;;37.97;23.85;;;;;;;15.49;90.74;101844.50;6098408;19;23946;-73
2023/05/07 06:41:50;;;;;;;37.58;22.77;;;;;;;15.61;90.30;101848.38;6099480;19;19999;-73
2023/05/07 06:43:56;;;;;;;43.30;22.80;;;;;;;15.58;90.49;101843.22;6099517;19;20737;-73
2023/05/07 06:46:02;;;;;;;44.67;24.17;;;;;;;15.55;90.56;101846.84;6099256;19;20621;-74
2023/05/07 06:48:08;;;;;;;41.45;24.50;;;;;;;15.67;89.81;101847.25;6091387;19;20680;-72
2023/05/07 06:50:13;;;;;;;42.53;25.45;;;;;;;15.72;88.93;101845.28;6094765;19;20039;-74
2023/05/07 06:52:18;;;;;;;38.22;24.13;;;;;;;15.87;89.22;101838.41;6095308;19;20006;-73
2023/05/07 06:54:23;;;;;;;40.65;24.90;;;;;;;16.00;88.49;101839.53;6095777;19;20010;-75
2023/05/07 06:56:29;;;;;;;43.10;24.48;;;;;;;15.84;88.49;101841.19;6098554;19;20010;-73
2023/05/07 06:58:37;;;;;;;45.17;25.88;;;;;;;15.94;88.22;101847.78;6095220;19;20007;-73
2023/05/07 07:00:42;;;;;;;42.08;24.83;;;;;;;15.83;88.47;101850.09;6101620;19;20361;-73
2023/05/07 07:02:47;;;;;;;39.88;23.33;;;;;;;15.61;88.23;101844.84;6095295;19;20353;-74
2023/05/07 07:04:52;;;;;;;46.13;25.98;;;;;;;15.64;88.53;101850.91;6097392;19;20583;-73
2023/05/07 07:06:57;;;;;;;40.80;22.98;;;;;;;15.59;88.52;101852.91;6094827;19;20895;-74
2023/05/07 07:09:03;;;;;;;37.90;23.42;;;;;;;15.73;88.61;101853.16;6099692;19;20820;-73
2023/05/07 07:11:08;;;;;;;43.17;24.13;;;;;;;15.74;88.76;101846.91;6096993;19;20013;-73
2023/05/07 07:13:13;;;;;;;38.75;23.15;;;;;;;15.72;88.81;101847.94;6096629;19;20564;-73
2023/05/07 07:15:24;;;;;;;40.53;23.75;;;;;;;16.02;87.61;101846.47;6097474;19;20657;-74
2023/05/07 07:17:29;;;;;;;41.20;23.77;;;;;;;16.61;86.30;101847.19;6100278;19;20093;-74
2023/05/07 07:19:34;;;;;;;40.40;24.38;;;;;;;16.76;85.18;101847.34;6096719;19;20492;-75
2023/05/07 07:21:39;;;;;;;39.90;23.73;;;;;;;17.25;84.00;101847.53;6092666;19;20492;-74
2023/05/07 07:23:44;;;;;;;38.45;23.48;;;;;;;17.72;82.04;101846.75;6097783;19;20480;-74
2023/05/07 07:25:49;;;;;;;38.83;22.05;;;;;;;17.48;81.85;101852.47;6098831;19;20752;-74
2023/05/07 07:27:54;;;;;;;38.20;23.02;;;;;;;17.41;83.21;101856.41;6099071;19;20011;-74
2023/05/07 07:29:59;;;;;;;32.95;19.98;;;;;;;17.36;82.80;101858.44;6098771;19;20006;-74
2023/05/07 07:32:07;;;;;;;35.90;22.05;;;;;;;17.42;83.00;101849.28;6093194;19;20019;-74
2023/05/07 07:34:12;;;;;;;31.10;19.48;;;;;;;17.50;81.68;101853.22;6096418;19;20007;-74
2023/05/07 07:36:17;;;;;;;33.08;20.52;;;;;;;17.70;80.43;101852.16;6097261;19;20007;-74
2023/05/07 07:38:22;;;;;;;29.08;18.48;;;;;;;17.79;80.33;101856.16;6096314;19;20472;-73
2023/05/07 07:40:28;;;;;;;32.50;20.08;;;;;;;17.78;80.56;101859.72;6097424;19;20043;-73
2023/05/07 07:42:33;;;;;;;32.58;19.40;;;;;;;17.80;80.74;101857.00;6098544;19;20002;-74
2023/05/07 07:44:39;;;;;;;29.70;19.00;;;;;;;17.66;80.80;101860.38;6098178;19;20523;-74
2023/05/07 07:46:44;;;;;;;32.00;19.83;;;;;;;17.46;80.30;101862.31;6098460;19;20042;-75
2023/05/07 07:48:52;;;;;;;29.27;18.17;;;;;;;17.48;80.84;101859.56;6099097;19;20014;-73
2023/05/07 07:50:58;;;;;;;30.88;18.95;;;;;;;17.57;80.85;101855.59;6103903;19;20010;-77
2023/05/07 07:53:03;;;;;;;32.60;19.73;;;;;;;17.64;81.01;101848.97;6096417;19;20010;-77
2023/05/07 07:55:09;;;;;;;32.05;18.30;;;;;;;17.81;80.79;101856.09;6105030;19;20011;-76
2023/05/07 07:57:14;;;;;;;32.53;18.85;;;;;;;17.91;79.36;101857.28;6108256;19;20039;-77
2023/05/07 07:59:20;;;;;;;28.00;16.88;;;;;;;18.01;79.20;101853.19;6101180;19;20364;-76
2023/05/07 08:01:25;;;;;;;27.92;16.45;;;;;;;17.79;79.01;101856.16;6104409;19;20019;-76
2023/05/07 08:03:32;;;;;;;28.90;18.08;;;;;;;17.83;79.53;101855.06;6107053;19;19999;-76
2023/05/07 08:05:40;;;;;;;30.95;18.88;;;;;;;18.03;79.75;101855.75;6106946;19;20035;-76
2023/05/07 08:07:46;;;;;;;30.48;18.40;;;;;;;18.30;79.06;101855.97;6103844;19;20812;-76
2023/05/07 08:09:51;;;;;;;30.40;18.55;;;;;;;18.40;78.79;101855.41;6101405;19;20003;-77
2023/05/07 08:11:56;;;;;;;28.85;18.20;;;;;;;18.38;78.36;101851.97;6101603;19;20496;-73
2023/05/07 08:14:02;;;;;;;26.48;16.65;;;;;;;18.53;77.48;101854.69;6099055;19;20013;-74
2023/05/07 08:16:08;;;;;;;23.73;15.07;;;;;;;18.52;76.77;101858.28;6095225;19;20018;-73
2023/05/07 08:18:13;;;;;;;30.08;17.48;;;;;;;18.54;76.79;101867.06;6096433;19;20010;-73
2023/05/07 08:20:18;;;;;;;24.42;15.88;;;;;;;18.79;76.30;101863.84;6101214;19;20051;-74
2023/05/07 08:22:26;;;;;;;25.45;15.88;;;;;;;18.68;76.60;101866.25;6093651;19;20003;-74
2023/05/07 08:24:30;;;;;;;31.50;17.33;;;;;;;18.62;76.68;101870.97;6097200;19;20019;-74
2023/05/07 08:26:39;;;;;;;33.38;17.70;;;;;;;18.64;76.66;101878.88;6095820;19;20503;-73
2023/05/07 08:28:44;;;;;;;29.30;18.25;;;;;;;18.76;76.54;101877.34;6094776;19;20390;-74
2023/05/07 08:30:48;;;;;;;27.27;16.73;;;;;;;18.82;76.78;101871.66;6101011;19;20006;-74
2023/05/07 08:32:53;;;;;;;29.35;17.65;;;;;;;18.83;76.86;101873.38;6100102;19;20021;-74
2023/05/07 08:34:59;;;;;;;27.58;16.23;;;;;;;18.83;75.39;101879.56;6100055;19;20021;-74
2023/05/07 08:37:04;;;;;;;29.45;18.52;;;;;;;18.78;76.73;101880.78;6101723;19;20141;-76
2023/05/07 08:39:12;;;;;;;30.83;17.83;;;;;;;19.06;75.84;101878.22;6103743;19;20014;-77
2023/05/07 08:41:17;;;;;;;25.55;16.52;;;;;;;19.16;75.37;101881.16;6095719;19;20097;-76
2023/05/07 08:43:22;;;;;;;26.77;17.13;;;;;;;19.08;74.67;101886.09;6098418;19;20119;-76
2023/05/07 08:45:29;;;;;;;29.35;18.70;;;;;;;19.19;74.40;101882.78;6095065;19;20015;-76
2023/05/07 08:47:42;;;;;;;28.98;17.75;;;;;;;18.98;75.03;101879.59;6091617;19;20006;-72
2023/05/07 08:49:48;;;;;;;27.77;17.42;;;;;;;19.29;73.33;101886.59;6093980;19;20500;-73
2023/05/07 08:51:53;;;;;;;30.13;18.70;;;;;;;19.21;73.87;101881.72;6100068;19;20010;-72
2023/05/07 08:53:59;;;;;;;32.22;18.75;;;;;;;19.48;73.00;101881.00;6095124;19;20017;-76
2023/05/07 08:56:08;;;;;;;30.58;19.15;;;;;;;19.78;73.61;101882.78;6099242;19;20658;-76
2023/05/07 08:58:13;;;;;;;32.40;19.25;;;;;;;19.60;72.60;101880.25;6095511;19;20044;-76
2023/05/07 09:00:19;;;;;;;33.53;18.73;;;;;;;19.56;71.88;101884.03;6096707;19;20040;-76
2023/05/07 09:02:24;;;;;;;31.08;20.35;;;;;;;19.70;72.74;101883.25;6097255;19;20487;-76
2023/05/07 09:04:31;;;;;;;37.10;20.42;;;;;;;20.20;71.38;101878.34;6099073;19;20042;-77
2023/05/07 09:06:37;;;;;;;33.17;20.98;;;;;;;20.12;70.01;101885.00;6099561;19;20089;-76
2023/05/07 09:08:42;;;;;;;37.75;23.33;;;;;;;19.97;70.66;101885.97;6095289;19;20031;-76
2023/05/07 09:10:47;;;;;;;35.38;20.17;;;;;;;20.17;70.59;101892.72;6098995;19;20110;-76
2023/05/07 09:12:58;;;;;;;32.30;20.00;;;;;;;20.67;68.39;101887.72;6099091;19;20490;-76
2023/05/07 09:15:03;;;;;;;30.75;20.20;;;;;;;20.42;68.67;101893.78;6097914;19;20314;-75
2023/05/07 09:17:08;;;;;;;37.45;21.67;;;;;;;20.64;69.44;101887.91;6094636;19;20010;-75
2023/05/07 09:19:13;;;;;;;32.00;20.13;;;;;;;20.67;69.06;101885.94;6098399;19;20214;-76
2023/05/07 09:21:18;;;;;;;32.05;19.95;;;;;;;20.65;68.28;101889.66;6091632;19;20760;-75
2023/05/07 09:23:23;;;;;;;34.88;21.65;;;;;;;20.59;68.54;101897.13;6094113;19;20094;-76
2023/05/07 09:25:33;;;;;;;29.40;19.85;;;;;;;20.66;68.29;101896.69;6092285;19;20953;-76
2023/05/07 09:27:41;;;;;;;31.95;19.73;;;;;;;20.51;67.40;101891.38;6093839;19;20081;-75
2023/05/07 09:29:49;;;;;;;41.20;18.42;;;;;;;20.52;67.15;101889.56;6097759;19;20552;-76
2023/05/07 09:31:54;;;;;;;30.20;17.05;;;;;;;20.48;68.01;101898.72;6092593;19;20002;-76